sensor_id;sensor_type;location;lat;lon;timestamp;P1;durP1;ratioP1;P2;durP2;ratioP2
72117;SDS011;59992;47.490;8.736;2023-01-31T00:01:23;9.30;;;4.20;;
72117;SDS011;59992;47.490;8.736;2023-01-31T00:03:55;9.20;;;3.40;;
72117;SDS011;59992;47.490;8.736;2023-01-31T00:06:27;7.70;;;4.00;;
72117;SDS011;59992;47.490;8.736;2023-01-31T00:08:57;9.70;;;4.30;;
72117;SDS011;59992;47.490;8.736;2023-01-31T00:11:28;8.30;;;3.90;;
72117;SDS011;59992;47.490;8.736;2023-01-31T00:13:59;8.40;;;3.70;;
72117;SDS011;59992;47.490;8.736;2023-01-31T00:16:30;7.80;;;3.80;;
72117;SDS011;59992;47.490;8.736;2023-01-31T00:19:01;8.10;;;3.90;;
72117;SDS011;59992;47.490;8.736;2023-01-31T00:21:31;7.80;;;3.80;;
72117;SDS011;59992;47.490;8.736;2023-01-31T00:24:03;7.80;;;3.80;;
72117;SDS011;59992;47.490;8.736;2023-01-31T00:26:33;6.90;;;3.70;;
72117;SDS011;59992;47.490;8.736;2023-01-31T00:29:05;7.50;;;4.10;;
72117;SDS011;59992;47.490;8.736;2023-01-31T00:31:35;9.40;;;4.30;;
72117;SDS011;59992;47.490;8.736;2023-01-31T00:34:07;7.60;;;3.80;;
72117;SDS011;59992;47.490;8.736;2023-01-31T00:36:38;7.20;;;4.00;;
72117;SDS011;59992;47.490;8.736;2023-01-31T00:39:10;9.00;;;4.30;;
72117;SDS011;59992;47.490;8.736;2023-01-31T00:41:40;10.60;;;4.90;;
72117;SDS011;59992;47.490;8.736;2023-01-31T00:44:09;8.40;;;4.40;;
72117;SDS011;59992;47.490;8.736;2023-01-31T00:46:40;7.80;;;3.70;;
72117;SDS011;59992;47.490;8.736;2023-01-31T00:49:09;7.80;;;3.70;;
72117;SDS011;59992;47.490;8.736;2023-01-31T00:51:39;9.50;;;4.30;;
72117;SDS011;59992;47.490;8.736;2023-01-31T00:54:10;7.20;;;3.60;;
72117;SDS011;59992;47.490;8.736;2023-01-31T00:56:40;8.40;;;3.80;;
72117;SDS011;59992;47.490;8.736;2023-01-31T00:59:11;7.00;;;3.80;;
72117;SDS011;59992;47.490;8.736;2023-01-31T01:01:42;7.60;;;3.90;;
72117;SDS011;59992;47.490;8.736;2023-01-31T01:04:11;8.60;;;3.90;;
72117;SDS011;59992;47.490;8.736;2023-01-31T01:06:40;9.80;;;4.70;;
72117;SDS011;59992;47.490;8.736;2023-01-31T01:09:10;9.50;;;5.20;;
72117;SDS011;59992;47.490;8.736;2023-01-31T01:11:40;9.90;;;4.70;;
72117;SDS011;59992;47.490;8.736;2023-01-31T01:14:10;8.70;;;4.30;;
72117;SDS011;59992;47.490;8.736;2023-01-31T01:16:40;10.10;;;4.60;;
72117;SDS011;59992;47.490;8.736;2023-01-31T01:19:11;9.90;;;4.50;;
72117;SDS011;59992;47.490;8.736;2023-01-31T01:21:42;9.20;;;4.90;;
72117;SDS011;59992;47.490;8.736;2023-01-31T01:24:13;8.80;;;4.60;;
72117;SDS011;59992;47.490;8.736;2023-01-31T01:26:45;9.20;;;4.10;;
72117;SDS011;59992;47.490;8.736;2023-01-31T01:29:16;8.30;;;3.30;;
72117;SDS011;59992;47.490;8.736;2023-01-31T01:31:45;9.70;;;4.50;;
72117;SDS011;59992;47.490;8.736;2023-01-31T01:34:15;8.50;;;4.10;;
72117;SDS011;59992;47.490;8.736;2023-01-31T01:36:46;7.10;;;3.90;;
72117;SDS011;59992;47.490;8.736;2023-01-31T01:39:15;8.70;;;4.50;;
72117;SDS011;59992;47.490;8.736;2023-01-31T01:41:45;9.80;;;4.90;;
72117;SDS011;59992;47.490;8.736;2023-01-31T01:47:13;10.10;;;4.80;;
72117;SDS011;59992;47.490;8.736;2023-01-31T01:49:53;8.70;;;4.00;;
72117;SDS011;59992;47.490;8.736;2023-01-31T01:52:27;9.00;;;4.60;;
72117;SDS011;59992;47.490;8.736;2023-01-31T01:55:09;6.50;;;3.90;;
72117;SDS011;59992;47.490;8.736;2023-01-31T01:57:44;7.80;;;4.00;;
72117;SDS011;59992;47.490;8.736;2023-01-31T02:00:18;7.10;;;3.70;;
72117;SDS011;59992;47.490;8.736;2023-01-31T02:02:57;8.90;;;4.30;;
72117;SDS011;59992;47.490;8.736;2023-01-31T02:05:34;6.40;;;3.70;;
72117;SDS011;59992;47.490;8.736;2023-01-31T02:08:09;7.60;;;3.60;;
72117;SDS011;59992;47.490;8.736;2023-01-31T02:10:43;8.70;;;4.20;;
72117;SDS011;59992;47.490;8.736;2023-01-31T02:13:17;7.90;;;4.20;;
72117;SDS011;59992;47.490;8.736;2023-01-31T02:15:55;8.00;;;4.00;;
72117;SDS011;59992;47.490;8.736;2023-01-31T02:18:25;8.80;;;4.00;;
72117;SDS011;59992;47.490;8.736;2023-01-31T02:21:11;7.50;;;3.90;;
72117;SDS011;59992;47.490;8.736;2023-01-31T02:24:13;9.80;;;4.20;;
72117;SDS011;59992;47.490;8.736;2023-01-31T02:30:13;10.10;;;4.60;;
72117;SDS011;59992;47.490;8.736;2023-01-31T02:33:00;10.60;;;4.90;;
72117;SDS011;59992;47.490;8.736;2023-01-31T02:35:44;10.80;;;5.00;;
72117;SDS011;59992;47.490;8.736;2023-01-31T02:38:29;10.60;;;5.00;;
72117;SDS011;59992;47.490;8.736;2023-01-31T02:41:11;9.40;;;5.10;;
72117;SDS011;59992;47.490;8.736;2023-01-31T02:43:51;9.60;;;4.70;;
72117;SDS011;59992;47.490;8.736;2023-01-31T02:46:42;10.30;;;4.60;;
72117;SDS011;59992;47.490;8.736;2023-01-31T02:49:20;8.60;;;4.20;;
72117;SDS011;59992;47.490;8.736;2023-01-31T02:52:05;10.10;;;5.00;;
72117;SDS011;59992;47.490;8.736;2023-01-31T02:54:44;11.10;;;5.30;;
72117;SDS011;59992;47.490;8.736;2023-01-31T02:57:40;10.20;;;5.10;;
72117;SDS011;59992;47.490;8.736;2023-01-31T03:00:12;12.60;;;5.60;;
72117;SDS011;59992;47.490;8.736;2023-01-31T03:02:43;12.80;;;5.50;;
72117;SDS011;59992;47.490;8.736;2023-01-31T03:05:14;11.90;;;5.50;;
72117;SDS011;59992;47.490;8.736;2023-01-31T03:07:49;12.10;;;5.40;;
72117;SDS011;59992;47.490;8.736;2023-01-31T03:10:26;10.40;;;5.10;;
72117;SDS011;59992;47.490;8.736;2023-01-31T03:13:21;10.90;;;5.40;;
72117;SDS011;59992;47.490;8.736;2023-01-31T03:16:03;11.50;;;5.20;;
72117;SDS011;59992;47.490;8.736;2023-01-31T03:18:58;10.60;;;5.30;;
72117;SDS011;59992;47.490;8.736;2023-01-31T03:21:42;10.80;;;5.30;;
72117;SDS011;59992;47.490;8.736;2023-01-31T03:24:20;10.70;;;5.50;;
72117;SDS011;59992;47.490;8.736;2023-01-31T03:26:53;9.60;;;4.70;;
72117;SDS011;59992;47.490;8.736;2023-01-31T03:29:25;9.10;;;4.70;;
72117;SDS011;59992;47.490;8.736;2023-01-31T03:32:01;11.50;;;5.10;;
72117;SDS011;59992;47.490;8.736;2023-01-31T03:34:34;11.20;;;5.20;;
72117;SDS011;59992;47.490;8.736;2023-01-31T03:37:07;11.80;;;5.30;;
72117;SDS011;59992;47.490;8.736;2023-01-31T03:39:43;11.70;;;5.10;;
72117;SDS011;59992;47.490;8.736;2023-01-31T03:42:21;10.20;;;4.40;;
72117;SDS011;59992;47.490;8.736;2023-01-31T03:44:59;8.80;;;4.90;;
72117;SDS011;59992;47.490;8.736;2023-01-31T03:47:34;10.70;;;4.90;;
72117;SDS011;59992;47.490;8.736;2023-01-31T03:50:08;10.80;;;5.10;;
72117;SDS011;59992;47.490;8.736;2023-01-31T03:52:41;9.30;;;4.80;;
72117;SDS011;59992;47.490;8.736;2023-01-31T03:55:17;10.60;;;4.80;;
72117;SDS011;59992;47.490;8.736;2023-01-31T03:57:51;9.50;;;4.60;;
72117;SDS011;59992;47.490;8.736;2023-01-31T04:00:23;10.10;;;5.20;;
72117;SDS011;59992;47.490;8.736;2023-01-31T04:02:57;11.80;;;4.90;;
72117;SDS011;59992;47.490;8.736;2023-01-31T04:05:31;10.40;;;4.90;;
72117;SDS011;59992;47.490;8.736;2023-01-31T04:08:01;10.30;;;4.90;;
72117;SDS011;59992;47.490;8.736;2023-01-31T04:10:31;11.40;;;5.20;;
72117;SDS011;59992;47.490;8.736;2023-01-31T04:13:01;9.90;;;5.20;;
72117;SDS011;59992;47.490;8.736;2023-01-31T04:15:31;10.90;;;4.60;;
72117;SDS011;59992;47.490;8.736;2023-01-31T04:18:01;10.40;;;5.00;;
72117;SDS011;59992;47.490;8.736;2023-01-31T04:20:30;11.70;;;4.70;;
72117;SDS011;59992;47.490;8.736;2023-01-31T04:23:00;11.60;;;5.00;;
72117;SDS011;59992;47.490;8.736;2023-01-31T04:25:30;12.30;;;5.00;;
72117;SDS011;59992;47.490;8.736;2023-01-31T04:28:00;13.50;;;5.00;;
72117;SDS011;59992;47.490;8.736;2023-01-31T04:30:30;10.00;;;4.60;;
72117;SDS011;59992;47.490;8.736;2023-01-31T04:33:00;10.40;;;4.60;;
72117;SDS011;59992;47.490;8.736;2023-01-31T04:35:30;13.30;;;5.10;;
72117;SDS011;59992;47.490;8.736;2023-01-31T04:38:00;10.30;;;4.50;;
72117;SDS011;59992;47.490;8.736;2023-01-31T04:40:30;10.60;;;4.40;;
72117;SDS011;59992;47.490;8.736;2023-01-31T04:43:00;17.80;;;6.00;;
72117;SDS011;59992;47.490;8.736;2023-01-31T04:45:29;13.90;;;6.10;;
72117;SDS011;59992;47.490;8.736;2023-01-31T04:47:58;13.20;;;5.90;;
72117;SDS011;59992;47.490;8.736;2023-01-31T04:50:28;11.40;;;5.40;;
72117;SDS011;59992;47.490;8.736;2023-01-31T04:52:58;9.90;;;5.00;;
72117;SDS011;59992;47.490;8.736;2023-01-31T04:55:28;10.10;;;5.00;;
72117;SDS011;59992;47.490;8.736;2023-01-31T04:57:58;10.80;;;4.80;;
72117;SDS011;59992;47.490;8.736;2023-01-31T05:00:28;10.40;;;5.20;;
72117;SDS011;59992;47.490;8.736;2023-01-31T05:02:58;9.70;;;4.20;;
72117;SDS011;59992;47.490;8.736;2023-01-31T05:05:28;11.90;;;5.10;;
72117;SDS011;59992;47.490;8.736;2023-01-31T05:07:59;13.10;;;5.90;;
72117;SDS011;59992;47.490;8.736;2023-01-31T05:10:32;12.70;;;5.40;;
72117;SDS011;59992;47.490;8.736;2023-01-31T05:13:02;11.60;;;4.70;;
72117;SDS011;59992;47.490;8.736;2023-01-31T05:15:33;10.60;;;4.70;;
72117;SDS011;59992;47.490;8.736;2023-01-31T05:18:02;10.10;;;4.40;;
72117;SDS011;59992;47.490;8.736;2023-01-31T05:20:33;10.10;;;4.60;;
72117;SDS011;59992;47.490;8.736;2023-01-31T05:23:07;9.50;;;4.40;;
72117;SDS011;59992;47.490;8.736;2023-01-31T05:25:37;10.00;;;5.10;;
72117;SDS011;59992;47.490;8.736;2023-01-31T05:28:06;12.70;;;5.60;;
72117;SDS011;59992;47.490;8.736;2023-01-31T05:30:36;13.50;;;6.00;;
72117;SDS011;59992;47.490;8.736;2023-01-31T05:33:07;11.30;;;5.70;;
72117;SDS011;59992;47.490;8.736;2023-01-31T05:35:37;11.80;;;5.20;;
72117;SDS011;59992;47.490;8.736;2023-01-31T05:38:08;12.10;;;5.00;;
72117;SDS011;59992;47.490;8.736;2023-01-31T05:40:38;9.70;;;5.00;;
72117;SDS011;59992;47.490;8.736;2023-01-31T05:43:08;10.10;;;4.60;;
72117;SDS011;59992;47.490;8.736;2023-01-31T05:45:38;9.50;;;4.50;;
72117;SDS011;59992;47.490;8.736;2023-01-31T05:48:07;12.00;;;4.40;;
72117;SDS011;59992;47.490;8.736;2023-01-31T05:50:38;12.50;;;4.90;;
72117;SDS011;59992;47.490;8.736;2023-01-31T05:53:09;9.60;;;4.80;;
72117;SDS011;59992;47.490;8.736;2023-01-31T05:55:39;10.00;;;4.80;;
72117;SDS011;59992;47.490;8.736;2023-01-31T05:58:09;12.40;;;5.40;;
72117;SDS011;59992;47.490;8.736;2023-01-31T06:00:39;9.70;;;5.00;;
72117;SDS011;59992;47.490;8.736;2023-01-31T06:03:09;10.10;;;4.50;;
72117;SDS011;59992;47.490;8.736;2023-01-31T06:05:39;8.70;;;4.60;;
72117;SDS011;59992;47.490;8.736;2023-01-31T06:08:09;9.70;;;4.50;;
72117;SDS011;59992;47.490;8.736;2023-01-31T06:10:39;10.00;;;4.10;;
72117;SDS011;59992;47.490;8.736;2023-01-31T06:13:10;8.00;;;3.80;;
72117;SDS011;59992;47.490;8.736;2023-01-31T06:15:42;10.60;;;4.40;;
72117;SDS011;59992;47.490;8.736;2023-01-31T06:18:12;10.10;;;4.00;;
72117;SDS011;59992;47.490;8.736;2023-01-31T06:20:42;8.90;;;4.00;;
72117;SDS011;59992;47.490;8.736;2023-01-31T06:23:11;11.20;;;4.80;;
72117;SDS011;59992;47.490;8.736;2023-01-31T06:25:41;11.10;;;5.60;;
72117;SDS011;59992;47.490;8.736;2023-01-31T06:28:11;10.10;;;4.80;;
72117;SDS011;59992;47.490;8.736;2023-01-31T06:30:41;12.00;;;5.70;;
72117;SDS011;59992;47.490;8.736;2023-01-31T06:33:11;10.00;;;4.90;;
72117;SDS011;59992;47.490;8.736;2023-01-31T06:35:40;9.90;;;5.10;;
72117;SDS011;59992;47.490;8.736;2023-01-31T06:38:10;12.30;;;4.90;;
72117;SDS011;59992;47.490;8.736;2023-01-31T06:40:42;10.50;;;4.40;;
72117;SDS011;59992;47.490;8.736;2023-01-31T06:43:12;11.00;;;4.80;;
72117;SDS011;59992;47.490;8.736;2023-01-31T06:45:42;12.50;;;4.90;;
72117;SDS011;59992;47.490;8.736;2023-01-31T06:48:12;9.80;;;4.30;;
72117;SDS011;59992;47.490;8.736;2023-01-31T06:50:42;9.70;;;4.60;;
72117;SDS011;59992;47.490;8.736;2023-01-31T06:53:12;8.80;;;4.20;;
72117;SDS011;59992;47.490;8.736;2023-01-31T06:55:42;9.30;;;4.50;;
72117;SDS011;59992;47.490;8.736;2023-01-31T06:58:12;9.20;;;4.70;;
72117;SDS011;59992;47.490;8.736;2023-01-31T07:00:41;9.20;;;4.50;;
72117;SDS011;59992;47.490;8.736;2023-01-31T07:03:12;8.90;;;4.30;;
72117;SDS011;59992;47.490;8.736;2023-01-31T07:05:41;11.20;;;4.90;;
72117;SDS011;59992;47.490;8.736;2023-01-31T07:08:14;10.00;;;5.00;;
72117;SDS011;59992;47.490;8.736;2023-01-31T07:10:45;10.50;;;5.00;;
72117;SDS011;59992;47.490;8.736;2023-01-31T07:13:28;9.70;;;4.90;;
72117;SDS011;59992;47.490;8.736;2023-01-31T07:15:57;9.50;;;4.70;;
72117;SDS011;59992;47.490;8.736;2023-01-31T07:18:27;10.10;;;4.40;;
72117;SDS011;59992;47.490;8.736;2023-01-31T07:20:57;9.40;;;4.10;;
72117;SDS011;59992;47.490;8.736;2023-01-31T07:23:27;10.30;;;5.00;;
72117;SDS011;59992;47.490;8.736;2023-01-31T07:25:57;8.80;;;4.70;;
72117;SDS011;59992;47.490;8.736;2023-01-31T07:28:29;8.90;;;4.20;;
72117;SDS011;59992;47.490;8.736;2023-01-31T07:31:04;9.20;;;5.00;;
72117;SDS011;59992;47.490;8.736;2023-01-31T07:33:37;9.80;;;4.40;;
72117;SDS011;59992;47.490;8.736;2023-01-31T07:36:09;10.50;;;4.40;;
72117;SDS011;59992;47.490;8.736;2023-01-31T07:38:41;10.20;;;4.90;;
72117;SDS011;59992;47.490;8.736;2023-01-31T07:41:11;9.70;;;4.80;;
72117;SDS011;59992;47.490;8.736;2023-01-31T07:43:40;9.30;;;4.70;;
72117;SDS011;59992;47.490;8.736;2023-01-31T07:46:10;10.30;;;4.50;;
72117;SDS011;59992;47.490;8.736;2023-01-31T07:48:40;12.50;;;5.70;;
72117;SDS011;59992;47.490;8.736;2023-01-31T07:51:09;9.00;;;4.40;;
72117;SDS011;59992;47.490;8.736;2023-01-31T07:53:39;8.90;;;4.00;;
72117;SDS011;59992;47.490;8.736;2023-01-31T07:56:10;11.70;;;4.80;;
72117;SDS011;59992;47.490;8.736;2023-01-31T07:58:41;8.70;;;4.70;;
72117;SDS011;59992;47.490;8.736;2023-01-31T08:01:13;10.40;;;4.90;;
72117;SDS011;59992;47.490;8.736;2023-01-31T08:04:02;8.70;;;4.50;;
72117;SDS011;59992;47.490;8.736;2023-01-31T08:06:32;9.20;;;3.90;;
72117;SDS011;59992;47.490;8.736;2023-01-31T08:09:02;9.20;;;4.80;;
72117;SDS011;59992;47.490;8.736;2023-01-31T08:11:32;9.80;;;4.30;;
72117;SDS011;59992;47.490;8.736;2023-01-31T08:14:02;8.60;;;4.30;;
72117;SDS011;59992;47.490;8.736;2023-01-31T08:16:34;8.90;;;4.70;;
72117;SDS011;59992;47.490;8.736;2023-01-31T08:19:04;7.80;;;3.80;;
72117;SDS011;59992;47.490;8.736;2023-01-31T08:21:34;8.60;;;4.20;;
72117;SDS011;59992;47.490;8.736;2023-01-31T08:24:04;8.50;;;4.50;;
72117;SDS011;59992;47.490;8.736;2023-01-31T08:26:34;10.20;;;4.50;;
72117;SDS011;59992;47.490;8.736;2023-01-31T08:29:04;10.20;;;4.30;;
72117;SDS011;59992;47.490;8.736;2023-01-31T08:31:34;11.60;;;5.10;;
72117;SDS011;59992;47.490;8.736;2023-01-31T08:34:07;9.50;;;4.50;;
72117;SDS011;59992;47.490;8.736;2023-01-31T08:36:37;9.30;;;4.80;;
72117;SDS011;59992;47.490;8.736;2023-01-31T08:39:07;9.10;;;4.10;;
72117;SDS011;59992;47.490;8.736;2023-01-31T08:41:37;9.90;;;4.50;;
72117;SDS011;59992;47.490;8.736;2023-01-31T08:44:11;9.80;;;4.40;;
72117;SDS011;59992;47.490;8.736;2023-01-31T08:46:42;11.10;;;4.40;;
72117;SDS011;59992;47.490;8.736;2023-01-31T08:49:12;11.40;;;4.40;;
72117;SDS011;59992;47.490;8.736;2023-01-31T08:51:42;12.80;;;5.20;;
72117;SDS011;59992;47.490;8.736;2023-01-31T08:54:15;9.70;;;4.50;;
72117;SDS011;59992;47.490;8.736;2023-01-31T08:56:45;9.00;;;4.40;;
72117;SDS011;59992;47.490;8.736;2023-01-31T08:59:14;10.30;;;4.40;;
72117;SDS011;59992;47.490;8.736;2023-01-31T09:01:44;9.20;;;4.20;;
72117;SDS011;59992;47.490;8.736;2023-01-31T09:04:13;11.70;;;4.80;;
72117;SDS011;59992;47.490;8.736;2023-01-31T09:06:43;11.90;;;4.70;;
72117;SDS011;59992;47.490;8.736;2023-01-31T09:09:13;10.60;;;5.10;;
72117;SDS011;59992;47.490;8.736;2023-01-31T09:11:43;11.80;;;5.60;;
72117;SDS011;59992;47.490;8.736;2023-01-31T09:14:13;8.60;;;4.60;;
72117;SDS011;59992;47.490;8.736;2023-01-31T09:16:42;9.70;;;4.80;;
72117;SDS011;59992;47.490;8.736;2023-01-31T09:19:12;18.10;;;7.70;;
72117;SDS011;59992;47.490;8.736;2023-01-31T09:21:41;12.70;;;6.30;;
72117;SDS011;59992;47.490;8.736;2023-01-31T09:24:11;13.90;;;6.80;;
72117;SDS011;59992;47.490;8.736;2023-01-31T09:26:40;15.70;;;6.50;;
72117;SDS011;59992;47.490;8.736;2023-01-31T09:29:10;12.40;;;6.30;;
72117;SDS011;59992;47.490;8.736;2023-01-31T09:31:39;13.00;;;6.70;;
72117;SDS011;59992;47.490;8.736;2023-01-31T09:34:10;10.90;;;5.40;;
72117;SDS011;59992;47.490;8.736;2023-01-31T09:36:40;14.20;;;6.20;;
72117;SDS011;59992;47.490;8.736;2023-01-31T09:39:11;13.40;;;6.30;;
72117;SDS011;59992;47.490;8.736;2023-01-31T09:41:42;13.50;;;6.60;;
72117;SDS011;59992;47.490;8.736;2023-01-31T09:44:15;14.50;;;7.00;;
72117;SDS011;59992;47.490;8.736;2023-01-31T09:46:51;15.60;;;7.60;;
72117;SDS011;59992;47.490;8.736;2023-01-31T09:49:26;13.50;;;6.40;;
72117;SDS011;59992;47.490;8.736;2023-01-31T09:52:01;12.90;;;6.50;;
72117;SDS011;59992;47.490;8.736;2023-01-31T09:54:33;14.70;;;7.70;;
72117;SDS011;59992;47.490;8.736;2023-01-31T09:57:07;14.90;;;7.00;;
72117;SDS011;59992;47.490;8.736;2023-01-31T09:59:48;14.50;;;6.90;;
72117;SDS011;59992;47.490;8.736;2023-01-31T10:05:22;13.80;;;7.00;;
72117;SDS011;59992;47.490;8.736;2023-01-31T10:08:01;15.90;;;7.30;;
72117;SDS011;59992;47.490;8.736;2023-01-31T10:10:44;11.30;;;5.90;;
72117;SDS011;59992;47.490;8.736;2023-01-31T10:13:20;13.80;;;6.80;;
72117;SDS011;59992;47.490;8.736;2023-01-31T10:15:58;15.00;;;7.00;;
72117;SDS011;59992;47.490;8.736;2023-01-31T10:18:32;16.80;;;7.00;;
72117;SDS011;59992;47.490;8.736;2023-01-31T10:21:05;11.80;;;6.00;;
72117;SDS011;59992;47.490;8.736;2023-01-31T10:23:39;13.80;;;6.90;;
72117;SDS011;59992;47.490;8.736;2023-01-31T10:26:13;12.10;;;6.10;;
72117;SDS011;59992;47.490;8.736;2023-01-31T10:28:48;13.10;;;5.80;;
72117;SDS011;59992;47.490;8.736;2023-01-31T10:31:29;10.40;;;5.30;;
72117;SDS011;59992;47.490;8.736;2023-01-31T10:34:03;11.70;;;6.10;;
72117;SDS011;59992;47.490;8.736;2023-01-31T10:36:41;11.60;;;5.80;;
72117;SDS011;59992;47.490;8.736;2023-01-31T10:39:19;10.20;;;5.50;;
72117;SDS011;59992;47.490;8.736;2023-01-31T10:41:59;7.50;;;3.30;;
72117;SDS011;59992;47.490;8.736;2023-01-31T10:44:40;9.20;;;4.50;;
72117;SDS011;59992;47.490;8.736;2023-01-31T10:47:15;10.60;;;5.60;;
72117;SDS011;59992;47.490;8.736;2023-01-31T10:49:47;9.60;;;5.10;;
72117;SDS011;59992;47.490;8.736;2023-01-31T10:52:29;11.60;;;4.90;;
72117;SDS011;59992;47.490;8.736;2023-01-31T10:55:10;10.30;;;4.90;;
72117;SDS011;59992;47.490;8.736;2023-01-31T10:57:54;10.90;;;5.10;;
72117;SDS011;59992;47.490;8.736;2023-01-31T11:00:25;10.70;;;6.00;;
72117;SDS011;59992;47.490;8.736;2023-01-31T11:02:57;10.70;;;5.70;;
72117;SDS011;59992;47.490;8.736;2023-01-31T11:05:27;10.40;;;5.40;;
72117;SDS011;59992;47.490;8.736;2023-01-31T11:07:58;9.60;;;5.20;;
72117;SDS011;59992;47.490;8.736;2023-01-31T11:10:51;9.90;;;4.80;;
72117;SDS011;59992;47.490;8.736;2023-01-31T11:13:24;10.20;;;4.90;;
72117;SDS011;59992;47.490;8.736;2023-01-31T11:15:54;9.40;;;5.20;;
72117;SDS011;59992;47.490;8.736;2023-01-31T11:18:27;13.00;;;5.40;;
72117;SDS011;59992;47.490;8.736;2023-01-31T11:20:59;10.30;;;5.80;;
72117;SDS011;59992;47.490;8.736;2023-01-31T11:23:31;11.60;;;5.70;;
72117;SDS011;59992;47.490;8.736;2023-01-31T11:26:03;10.40;;;5.40;;
72117;SDS011;59992;47.490;8.736;2023-01-31T11:28:34;9.90;;;5.20;;
72117;SDS011;59992;47.490;8.736;2023-01-31T11:31:06;9.30;;;5.20;;
72117;SDS011;59992;47.490;8.736;2023-01-31T11:33:44;10.30;;;5.50;;
72117;SDS011;59992;47.490;8.736;2023-01-31T11:36:25;11.10;;;5.50;;
72117;SDS011;59992;47.490;8.736;2023-01-31T11:39:01;7.40;;;3.90;;
72117;SDS011;59992;47.490;8.736;2023-01-31T11:41:51;10.20;;;5.00;;
72117;SDS011;59992;47.490;8.736;2023-01-31T11:44:22;9.50;;;4.60;;
72117;SDS011;59992;47.490;8.736;2023-01-31T11:46:53;12.00;;;5.80;;
72117;SDS011;59992;47.490;8.736;2023-01-31T11:49:29;8.70;;;4.70;;
72117;SDS011;59992;47.490;8.736;2023-01-31T11:52:01;8.70;;;4.30;;
72117;SDS011;59992;47.490;8.736;2023-01-31T11:54:41;10.30;;;5.20;;
72117;SDS011;59992;47.490;8.736;2023-01-31T11:57:14;11.20;;;4.60;;
72117;SDS011;59992;47.490;8.736;2023-01-31T11:59:51;8.70;;;4.80;;
72117;SDS011;59992;47.490;8.736;2023-01-31T12:02:29;10.90;;;5.10;;
72117;SDS011;59992;47.490;8.736;2023-01-31T12:05:07;9.00;;;4.90;;
72117;SDS011;59992;47.490;8.736;2023-01-31T12:07:43;10.00;;;4.90;;
72117;SDS011;59992;47.490;8.736;2023-01-31T12:10:34;7.80;;;3.20;;
72117;SDS011;59992;47.490;8.736;2023-01-31T12:13:15;5.60;;;2.90;;
72117;SDS011;59992;47.490;8.736;2023-01-31T12:15:47;9.50;;;5.20;;
72117;SDS011;59992;47.490;8.736;2023-01-31T12:18:29;9.20;;;3.80;;
72117;SDS011;59992;47.490;8.736;2023-01-31T12:21:12;9.60;;;3.90;;
72117;SDS011;59992;47.490;8.736;2023-01-31T12:23:47;8.70;;;3.50;;
72117;SDS011;59992;47.490;8.736;2023-01-31T12:26:30;10.10;;;4.50;;
72117;SDS011;59992;47.490;8.736;2023-01-31T12:29:15;8.30;;;4.20;;
72117;SDS011;59992;47.490;8.736;2023-01-31T12:31:59;8.40;;;4.30;;
72117;SDS011;59992;47.490;8.736;2023-01-31T12:34:52;8.70;;;4.10;;
72117;SDS011;59992;47.490;8.736;2023-01-31T12:37:37;8.20;;;3.80;;
72117;SDS011;59992;47.490;8.736;2023-01-31T12:40:24;8.10;;;3.70;;
72117;SDS011;59992;47.490;8.736;2023-01-31T12:43:15;9.80;;;4.10;;
72117;SDS011;59992;47.490;8.736;2023-01-31T12:46:07;6.80;;;2.90;;
72117;SDS011;59992;47.490;8.736;2023-01-31T12:48:52;7.30;;;3.70;;
72117;SDS011;59992;47.490;8.736;2023-01-31T12:51:43;5.80;;;3.30;;
72117;SDS011;59992;47.490;8.736;2023-01-31T12:54:29;7.70;;;3.60;;
72117;SDS011;59992;47.490;8.736;2023-01-31T12:57:20;6.60;;;3.20;;
72117;SDS011;59992;47.490;8.736;2023-01-31T13:00:01;5.80;;;2.80;;
72117;SDS011;59992;47.490;8.736;2023-01-31T13:02:40;7.10;;;3.10;;
72117;SDS011;59992;47.490;8.736;2023-01-31T13:05:20;7.10;;;3.30;;
72117;SDS011;59992;47.490;8.736;2023-01-31T13:07:56;4.90;;;2.50;;
72117;SDS011;59992;47.490;8.736;2023-01-31T13:10:34;6.40;;;3.30;;
72117;SDS011;59992;47.490;8.736;2023-01-31T13:13:09;7.20;;;3.30;;
72117;SDS011;59992;47.490;8.736;2023-01-31T13:15:46;5.60;;;2.40;;
72117;SDS011;59992;47.490;8.736;2023-01-31T13:18:20;6.60;;;3.00;;
72117;SDS011;59992;47.490;8.736;2023-01-31T13:20:53;7.80;;;3.30;;
72117;SDS011;59992;47.490;8.736;2023-01-31T13:23:27;6.70;;;3.50;;
72117;SDS011;59992;47.490;8.736;2023-01-31T13:26:04;5.80;;;2.70;;
72117;SDS011;59992;47.490;8.736;2023-01-31T13:28:38;8.60;;;3.00;;
72117;SDS011;59992;47.490;8.736;2023-01-31T13:31:16;6.40;;;2.60;;
72117;SDS011;59992;47.490;8.736;2023-01-31T13:33:51;5.70;;;2.10;;
72117;SDS011;59992;47.490;8.736;2023-01-31T13:36:32;4.30;;;1.90;;
72117;SDS011;59992;47.490;8.736;2023-01-31T13:39:09;7.00;;;3.40;;
72117;SDS011;59992;47.490;8.736;2023-01-31T13:41:47;6.20;;;2.10;;
72117;SDS011;59992;47.490;8.736;2023-01-31T13:44:17;4.40;;;1.90;;
72117;SDS011;59992;47.490;8.736;2023-01-31T13:46:48;4.60;;;2.10;;
72117;SDS011;59992;47.490;8.736;2023-01-31T13:49:24;5.80;;;2.60;;
72117;SDS011;59992;47.490;8.736;2023-01-31T13:51:59;6.10;;;2.50;;
72117;SDS011;59992;47.490;8.736;2023-01-31T13:54:35;5.70;;;2.60;;
72117;SDS011;59992;47.490;8.736;2023-01-31T13:57:16;5.70;;;2.10;;
72117;SDS011;59992;47.490;8.736;2023-01-31T13:59:53;7.30;;;2.60;;
72117;SDS011;59992;47.490;8.736;2023-01-31T14:02:30;6.80;;;2.70;;
72117;SDS011;59992;47.490;8.736;2023-01-31T14:05:48;5.40;;;2.60;;
72117;SDS011;59992;47.490;8.736;2023-01-31T14:08:29;9.20;;;3.30;;
72117;SDS011;59992;47.490;8.736;2023-01-31T14:11:29;6.30;;;3.00;;
72117;SDS011;59992;47.490;8.736;2023-01-31T14:17:10;7.80;;;2.60;;
72117;SDS011;59992;47.490;8.736;2023-01-31T14:22:32;7.10;;;2.50;;
72117;SDS011;59992;47.490;8.736;2023-01-31T14:25:05;8.50;;;2.90;;
72117;SDS011;59992;47.490;8.736;2023-01-31T14:27:43;7.70;;;2.80;;
72117;SDS011;59992;47.490;8.736;2023-01-31T14:30:33;8.00;;;3.00;;
72117;SDS011;59992;47.490;8.736;2023-01-31T14:33:13;7.90;;;3.10;;
72117;SDS011;59992;47.490;8.736;2023-01-31T14:48:01;6.20;;;2.40;;
72117;SDS011;59992;47.490;8.736;2023-01-31T14:50:51;6.50;;;2.40;;
72117;SDS011;59992;47.490;8.736;2023-01-31T14:53:37;5.40;;;2.10;;
72117;SDS011;59992;47.490;8.736;2023-01-31T14:56:36;4.90;;;2.60;;
72117;SDS011;59992;47.490;8.736;2023-01-31T14:59:30;6.60;;;3.00;;
72117;SDS011;59992;47.490;8.736;2023-01-31T15:05:02;7.90;;;3.00;;
72117;SDS011;59992;47.490;8.736;2023-01-31T15:07:36;4.80;;;2.70;;
72117;SDS011;59992;47.490;8.736;2023-01-31T15:13:36;8.40;;;2.60;;
72117;SDS011;59992;47.490;8.736;2023-01-31T15:16:15;3.60;;;1.80;;
72117;SDS011;59992;47.490;8.736;2023-01-31T15:18:56;4.90;;;2.00;;
72117;SDS011;59992;47.490;8.736;2023-01-31T15:21:38;8.70;;;3.40;;
72117;SDS011;59992;47.490;8.736;2023-01-31T15:24:29;4.60;;;1.80;;
72117;SDS011;59992;47.490;8.736;2023-01-31T15:27:01;6.00;;;2.60;;
72117;SDS011;59992;47.490;8.736;2023-01-31T15:29:52;7.60;;;2.50;;
72117;SDS011;59992;47.490;8.736;2023-01-31T15:32:30;7.40;;;2.50;;
72117;SDS011;59992;47.490;8.736;2023-01-31T15:35:12;8.50;;;3.00;;
72117;SDS011;59992;47.490;8.736;2023-01-31T15:37:44;6.70;;;2.70;;
72117;SDS011;59992;47.490;8.736;2023-01-31T15:40:23;7.00;;;3.30;;
72117;SDS011;59992;47.490;8.736;2023-01-31T15:42:54;6.10;;;2.40;;
72117;SDS011;59992;47.490;8.736;2023-01-31T15:45:43;6.50;;;2.90;;
72117;SDS011;59992;47.490;8.736;2023-01-31T15:48:17;5.90;;;2.30;;
72117;SDS011;59992;47.490;8.736;2023-01-31T15:50:51;6.50;;;3.00;;
72117;SDS011;59992;47.490;8.736;2023-01-31T15:53:23;6.10;;;2.70;;
72117;SDS011;59992;47.490;8.736;2023-01-31T15:55:55;9.60;;;3.30;;
72117;SDS011;59992;47.490;8.736;2023-01-31T15:58:28;7.40;;;2.70;;
72117;SDS011;59992;47.490;8.736;2023-01-31T16:01:02;7.80;;;3.10;;